sensor_id;sensor_type;location;lat;lon;timestamp;pressure;altitude;pressure_sealevel;temperature
73662;BMP280;61956;52.540;13.382;2022-12-07T00:00:09;86542.38;;;3.47
73662;BMP280;61956;52.540;13.382;2022-12-07T00:02:38;86747.19;;;3.47
73662;BMP280;61956;52.540;13.382;2022-12-07T00:05:07;85994.19;;;3.43
73662;BMP280;61956;52.540;13.382;2022-12-07T00:07:37;85626.09;;;3.41
73662;BMP280;61956;52.540;13.382;2022-12-07T00:10:09;85131.09;;;3.37
73662;BMP280;61956;52.540;13.382;2022-12-07T00:12:38;85717.91;;;3.41
73662;BMP280;61956;52.540;13.382;2022-12-07T00:15:08;85235.00;;;3.36
73662;BMP280;61956;52.540;13.382;2022-12-07T00:17:38;85416.72;;;3.37
73662;BMP280;61956;52.540;13.382;2022-12-07T00:20:08;84394.00;;;3.31
73662;BMP280;61956;52.540;13.382;2022-12-07T00:22:41;84669.31;;;3.31
73662;BMP280;61956;52.540;13.382;2022-12-07T00:25:10;83542.59;;;3.24
73662;BMP280;61956;52.540;13.382;2022-12-07T00:27:39;83996.19;;;3.24
73662;BMP280;61956;52.540;13.382;2022-12-07T00:30:09;83829.19;;;3.21
73662;BMP280;61956;52.540;13.382;2022-12-07T00:32:38;83180.69;;;3.18
73662;BMP280;61956;52.540;13.382;2022-12-07T00:35:08;83917.72;;;3.21
73662;BMP280;61956;52.540;13.382;2022-12-07T00:37:37;84618.16;;;3.26
73662;BMP280;61956;52.540;13.382;2022-12-07T00:40:10;83371.72;;;3.16
73662;BMP280;61956;52.540;13.382;2022-12-07T00:42:39;83356.44;;;3.16
73662;BMP280;61956;52.540;13.382;2022-12-07T00:45:09;82444.50;;;3.10
73662;BMP280;61956;52.540;13.382;2022-12-07T00:47:38;82651.41;;;3.11
73662;BMP280;61956;52.540;13.382;2022-12-07T00:50:08;82454.66;;;3.08
73662;BMP280;61956;52.540;13.382;2022-12-07T00:52:37;82002.06;;;3.04
73662;BMP280;61956;52.540;13.382;2022-12-07T00:55:09;80168.06;;;2.93
73662;BMP280;61956;52.540;13.382;2022-12-07T00:57:38;78631.97;;;2.82
73662;BMP280;61956;52.540;13.382;2022-12-07T01:00:08;78221.06;;;2.78
73662;BMP280;61956;52.540;13.382;2022-12-07T01:02:38;77703.06;;;2.72
73662;BMP280;61956;52.540;13.382;2022-12-07T01:05:08;76966.09;;;2.68
73662;BMP280;61956;52.540;13.382;2022-12-07T01:07:37;76596.84;;;2.65
73662;BMP280;61956;52.540;13.382;2022-12-07T01:10:10;77479.78;;;2.68
73662;BMP280;61956;52.540;13.382;2022-12-07T01:12:39;78321.13;;;2.73
73662;BMP280;61956;52.540;13.382;2022-12-07T01:15:10;78907.53;;;2.74
73662;BMP280;61956;52.540;13.382;2022-12-07T01:17:39;79252.56;;;2.76
73662;BMP280;61956;52.540;13.382;2022-12-07T01:20:09;79204.25;;;2.76
73662;BMP280;61956;52.540;13.382;2022-12-07T01:22:40;79169.97;;;2.75
73662;BMP280;61956;52.540;13.382;2022-12-07T01:25:13;79922.44;;;2.79
73662;BMP280;61956;52.540;13.382;2022-12-07T01:27:42;78991.50;;;2.72
73662;BMP280;61956;52.540;13.382;2022-12-07T01:30:12;78515.13;;;2.69
73662;BMP280;61956;52.540;13.382;2022-12-07T01:32:42;79085.56;;;2.72
73662;BMP280;61956;52.540;13.382;2022-12-07T01:35:11;78902.66;;;2.70
73662;BMP280;61956;52.540;13.382;2022-12-07T01:37:40;78377.41;;;2.67
73662;BMP280;61956;52.540;13.382;2022-12-07T01:40:12;78674.00;;;2.68
73662;BMP280;61956;52.540;13.382;2022-12-07T01:42:41;80949.28;;;2.80
73662;BMP280;61956;52.540;13.382;2022-12-07T01:48:15;82705.31;;;2.91
73662;BMP280;61956;52.540;13.382;2022-12-07T01:50:50;82644.22;;;2.91
73662;BMP280;61956;52.540;13.382;2022-12-07T01:53:24;82898.81;;;2.93
73662;BMP280;61956;52.540;13.382;2022-12-07T01:56:00;81683.31;;;2.86
73662;BMP280;61956;52.540;13.382;2022-12-07T01:58:29;81683.31;;;2.86
73662;BMP280;61956;52.540;13.382;2022-12-07T02:00:59;81743.13;;;2.84
73662;BMP280;61956;52.540;13.382;2022-12-07T02:03:32;81307.38;;;2.82
73662;BMP280;61956;52.540;13.382;2022-12-07T02:06:06;81048.50;;;2.80
73662;BMP280;61956;52.540;13.382;2022-12-07T02:08:36;79956.97;;;2.72
73662;BMP280;61956;52.540;13.382;2022-12-07T02:11:09;79536.94;;;2.69
73662;BMP280;61956;52.540;13.382;2022-12-07T02:13:41;79443.56;;;2.68
73662;BMP280;61956;52.540;13.382;2022-12-07T02:16:23;79390.88;;;2.66
73662;BMP280;61956;52.540;13.382;2022-12-07T02:19:20;79192.00;;;2.66
73662;BMP280;61956;52.540;13.382;2022-12-07T02:22:17;78426.78;;;2.59
73662;BMP280;61956;52.540;13.382;2022-12-07T02:25:04;78155.06;;;2.57
73662;BMP280;61956;52.540;13.382;2022-12-07T02:27:50;78838.34;;;2.61
73662;BMP280;61956;52.540;13.382;2022-12-07T02:30:31;79218.22;;;2.62
73662;BMP280;61956;52.540;13.382;2022-12-07T02:33:06;79415.16;;;2.63
73662;BMP280;61956;52.540;13.382;2022-12-07T02:35:44;79575.31;;;2.63
73662;BMP280;61956;52.540;13.382;2022-12-07T02:38:26;77817.56;;;2.51
73662;BMP280;61956;52.540;13.382;2022-12-07T02:41:04;78478.44;;;2.55
73662;BMP280;61956;52.540;13.382;2022-12-07T02:43:40;77667.88;;;2.49
73662;BMP280;61956;52.540;13.382;2022-12-07T02:46:21;77241.97;;;2.47
73662;BMP280;61956;52.540;13.382;2022-12-07T02:48:53;78403.06;;;2.52
73662;BMP280;61956;52.540;13.382;2022-12-07T02:51:25;78569.41;;;2.53
73662;BMP280;61956;52.540;13.382;2022-12-07T02:53:58;78415.75;;;2.52
73662;BMP280;61956;52.540;13.382;2022-12-07T02:56:35;78078.00;;;2.50
73662;BMP280;61956;52.540;13.382;2022-12-07T02:59:16;78013.31;;;2.49
73662;BMP280;61956;52.540;13.382;2022-12-07T03:02:06;78318.72;;;2.49
73662;BMP280;61956;52.540;13.382;2022-12-07T03:04:52;78627.94;;;2.51
73662;BMP280;61956;52.540;13.382;2022-12-07T03:07:37;78358.78;;;2.49
73662;BMP280;61956;52.540;13.382;2022-12-07T03:10:18;79294.19;;;2.53
73662;BMP280;61956;52.540;13.382;2022-12-07T03:13:00;78827.34;;;2.52
73662;BMP280;61956;52.540;13.382;2022-12-07T03:15:40;79061.13;;;2.52
73662;BMP280;61956;52.540;13.382;2022-12-07T03:18:20;79165.91;;;2.52
73662;BMP280;61956;52.540;13.382;2022-12-07T03:20:55;79370.44;;;2.53
73662;BMP280;61956;52.540;13.382;2022-12-07T03:23:32;79989.88;;;2.57
73662;BMP280;61956;52.540;13.382;2022-12-07T03:26:08;80896.84;;;2.63
73662;BMP280;61956;52.540;13.382;2022-12-07T03:28:44;81511.69;;;2.66
73662;BMP280;61956;52.540;13.382;2022-12-07T03:31:19;81542.84;;;2.67
73662;BMP280;61956;52.540;13.382;2022-12-07T03:33:59;82082.84;;;2.71
73662;BMP280;61956;52.540;13.382;2022-12-07T03:36:37;82677.09;;;2.74
73662;BMP280;61956;52.540;13.382;2022-12-07T03:39:16;82805.66;;;2.75
73662;BMP280;61956;52.540;13.382;2022-12-07T03:41:52;83001.66;;;2.75
73662;BMP280;61956;52.540;13.382;2022-12-07T03:44:22;82969.84;;;2.76
73662;BMP280;61956;52.540;13.382;2022-12-07T03:46:58;83228.91;;;2.78
73662;BMP280;61956;52.540;13.382;2022-12-07T03:49:39;83423.69;;;2.79
73662;BMP280;61956;52.540;13.382;2022-12-07T03:52:20;83854.75;;;2.81
73662;BMP280;61956;52.540;13.382;2022-12-07T03:54:57;84350.22;;;2.84
73662;BMP280;61956;52.540;13.382;2022-12-07T03:57:33;84171.25;;;2.84
73662;BMP280;61956;52.540;13.382;2022-12-07T04:00:06;84022.25;;;2.83
73662;BMP280;61956;52.540;13.382;2022-12-07T04:02:41;83512.88;;;2.81
73662;BMP280;61956;52.540;13.382;2022-12-07T04:05:13;82981.31;;;2.77
73662;BMP280;61956;52.540;13.382;2022-12-07T04:07:42;82411.13;;;2.73
73662;BMP280;61956;52.540;13.382;2022-12-07T04:10:12;82272.41;;;2.72
73662;BMP280;61956;52.540;13.382;2022-12-07T04:12:41;82465.22;;;2.74
73662;BMP280;61956;52.540;13.382;2022-12-07T04:15:11;82413.03;;;2.73
73662;BMP280;61956;52.540;13.382;2022-12-07T04:17:40;82068.19;;;2.70
73662;BMP280;61956;52.540;13.382;2022-12-07T04:20:13;82497.66;;;2.73
73662;BMP280;61956;52.540;13.382;2022-12-07T04:22:42;82153.47;;;2.71
73662;BMP280;61956;52.540;13.382;2022-12-07T04:25:12;82292.75;;;2.70
73662;BMP280;61956;52.540;13.382;2022-12-07T04:27:41;82161.09;;;2.71
73662;BMP280;61956;52.540;13.382;2022-12-07T04:30:11;81752.06;;;2.67
73662;BMP280;61956;52.540;13.382;2022-12-07T04:32:40;81822.69;;;2.67
73662;BMP280;61956;52.540;13.382;2022-12-07T04:35:09;81562.56;;;2.66
73662;BMP280;61956;52.540;13.382;2022-12-07T04:37:41;81640.78;;;2.66
73662;BMP280;61956;52.540;13.382;2022-12-07T04:40:11;81797.22;;;2.67
73662;BMP280;61956;52.540;13.382;2022-12-07T04:42:40;81898.38;;;2.66
73662;BMP280;61956;52.540;13.382;2022-12-07T04:45:10;81785.16;;;2.65
73662;BMP280;61956;52.540;13.382;2022-12-07T04:47:39;81768.66;;;2.64
73662;BMP280;61956;52.540;13.382;2022-12-07T04:50:09;82215.13;;;2.67
73662;BMP280;61956;52.540;13.382;2022-12-07T04:52:41;82162.97;;;2.66
73662;BMP280;61956;52.540;13.382;2022-12-07T04:55:10;82864.13;;;2.71
73662;BMP280;61956;52.540;13.382;2022-12-07T04:57:39;83021.94;;;2.71
73662;BMP280;61956;52.540;13.382;2022-12-07T05:00:10;82795.41;;;2.71
73662;BMP280;61956;52.540;13.382;2022-12-07T05:02:41;83987.03;;;2.77
73662;BMP280;61956;52.540;13.382;2022-12-07T05:05:10;85023.97;;;2.83
73662;BMP280;61956;52.540;13.382;2022-12-07T05:07:41;85521.72;;;2.88
73662;BMP280;61956;52.540;13.382;2022-12-07T05:10:10;86449.22;;;2.94
73662;BMP280;61956;52.540;13.382;2022-12-07T05:12:40;86314.13;;;2.94
73662;BMP280;61956;52.540;13.382;2022-12-07T05:15:09;87779.91;;;3.03
73662;BMP280;61956;52.540;13.382;2022-12-07T05:17:38;88325.59;;;3.06
73662;BMP280;61956;52.540;13.382;2022-12-07T05:20:08;88200.56;;;3.06
73662;BMP280;61956;52.540;13.382;2022-12-07T05:22:41;89456.00;;;3.16
73662;BMP280;61956;52.540;13.382;2022-12-07T05:25:10;89397.28;;;3.16
73662;BMP280;61956;52.540;13.382;2022-12-07T05:27:39;89998.53;;;3.20
73662;BMP280;61956;52.540;13.382;2022-12-07T05:30:09;90091.44;;;3.23
73662;BMP280;61956;52.540;13.382;2022-12-07T05:32:39;90444.88;;;3.25
73662;BMP280;61956;52.540;13.382;2022-12-07T05:35:09;90326.69;;;3.25
73662;BMP280;61956;52.540;13.382;2022-12-07T05:37:41;90908.50;;;3.30
73662;BMP280;61956;52.540;13.382;2022-12-07T05:40:11;90866.91;;;3.29
73662;BMP280;61956;52.540;13.382;2022-12-07T05:42:41;91296.75;;;3.34
73662;BMP280;61956;52.540;13.382;2022-12-07T05:45:11;91542.81;;;3.34
73662;BMP280;61956;52.540;13.382;2022-12-07T05:47:40;91396.03;;;3.35
73662;BMP280;61956;52.540;13.382;2022-12-07T05:50:09;92196.28;;;3.41
73662;BMP280;61956;52.540;13.382;2022-12-07T05:52:41;92378.16;;;3.43
73662;BMP280;61956;52.540;13.382;2022-12-07T05:55:10;92374.47;;;3.44
73662;BMP280;61956;52.540;13.382;2022-12-07T05:57:39;92557.50;;;3.45
73662;BMP280;61956;52.540;13.382;2022-12-07T06:00:29;93075.50;;;3.49
73662;BMP280;61956;52.540;13.382;2022-12-07T06:02:56;93272.06;;;3.51
73662;BMP280;61956;52.540;13.382;2022-12-07T06:05:25;94180.34;;;3.58
73662;BMP280;61956;52.540;13.382;2022-12-07T06:07:57;94230.47;;;3.59
73662;BMP280;61956;52.540;13.382;2022-12-07T06:10:26;93984.06;;;3.59
73662;BMP280;61956;52.540;13.382;2022-12-07T06:12:55;94095.22;;;3.61
73662;BMP280;61956;52.540;13.382;2022-12-07T06:15:22;94446.22;;;3.63
73662;BMP280;61956;52.540;13.382;2022-12-07T06:17:51;94292.69;;;3.63
73662;BMP280;61956;52.540;13.382;2022-12-07T06:20:20;94606.09;;;3.66
73662;BMP280;61956;52.540;13.382;2022-12-07T06:22:49;94066.75;;;3.63
73662;BMP280;61956;52.540;13.382;2022-12-07T06:25:21;94059.78;;;3.63
73662;BMP280;61956;52.540;13.382;2022-12-07T06:27:50;94063.84;;;3.64
73662;BMP280;61956;52.540;13.382;2022-12-07T06:30:21;93680.34;;;3.63
73662;BMP280;61956;52.540;13.382;2022-12-07T06:32:50;93739.94;;;3.63
73662;BMP280;61956;52.540;13.382;2022-12-07T06:35:19;93677.06;;;3.62
73662;BMP280;61956;52.540;13.382;2022-12-07T06:37:48;93775.75;;;3.63
73662;BMP280;61956;52.540;13.382;2022-12-07T06:40:17;93723.50;;;3.64
73662;BMP280;61956;52.540;13.382;2022-12-07T06:42:49;93370.78;;;3.63
73662;BMP280;61956;52.540;13.382;2022-12-07T06:45:18;93636.53;;;3.64
73662;BMP280;61956;52.540;13.382;2022-12-07T06:47:48;94204.34;;;3.69
73662;BMP280;61956;52.540;13.382;2022-12-07T06:50:17;94186.41;;;3.69
73662;BMP280;61956;52.540;13.382;2022-12-07T06:52:46;94681.25;;;3.73
73662;BMP280;61956;52.540;13.382;2022-12-07T06:55:15;94659.28;;;3.72
73662;BMP280;61956;52.540;13.382;2022-12-07T06:57:45;95018.53;;;3.77
73662;BMP280;61956;52.540;13.382;2022-12-07T07:00:18;95721.81;;;3.81
73662;BMP280;61956;52.540;13.382;2022-12-07T07:02:47;95984.31;;;3.84
73662;BMP280;61956;52.540;13.382;2022-12-07T07:05:16;96036.31;;;3.84
73662;BMP280;61956;52.540;13.382;2022-12-07T07:07:47;96702.34;;;3.89
73662;BMP280;61956;52.540;13.382;2022-12-07T07:10:17;97308.94;;;3.94
73662;BMP280;61956;52.540;13.382;2022-12-07T07:12:46;97473.47;;;3.96
73662;BMP280;61956;52.540;13.382;2022-12-07T07:15:18;97124.09;;;3.95
73662;BMP280;61956;52.540;13.382;2022-12-07T07:17:47;97609.84;;;3.98
73662;BMP280;61956;52.540;13.382;2022-12-07T07:20:17;97910.06;;;4.02
73662;BMP280;61956;52.540;13.382;2022-12-07T07:22:46;98098.56;;;4.04
73662;BMP280;61956;52.540;13.382;2022-12-07T07:25:15;98321.41;;;4.06
73662;BMP280;61956;52.540;13.382;2022-12-07T07:27:45;98372.25;;;4.09
73662;BMP280;61956;52.540;13.382;2022-12-07T07:30:14;98396.31;;;4.08
73662;BMP280;61956;52.540;13.382;2022-12-07T07:32:46;98509.50;;;4.11
73662;BMP280;61956;52.540;13.382;2022-12-07T07:35:16;98101.16;;;4.09
73662;BMP280;61956;52.540;13.382;2022-12-07T07:37:45;98169.38;;;4.10
73662;BMP280;61956;52.540;13.382;2022-12-07T07:40:15;97482.66;;;4.07
73662;BMP280;61956;52.540;13.382;2022-12-07T07:42:47;96537.59;;;4.03
73662;BMP280;61956;52.540;13.382;2022-12-07T07:45:20;96641.91;;;4.02
73662;BMP280;61956;52.540;13.382;2022-12-07T07:47:51;97846.25;;;4.10
73662;BMP280;61956;52.540;13.382;2022-12-07T07:50:20;99089.94;;;4.19
73662;BMP280;61956;52.540;13.382;2022-12-07T07:52:50;99557.06;;;4.24
73662;BMP280;61956;52.540;13.382;2022-12-07T07:55:20;99532.97;;;4.25
73662;BMP280;61956;52.540;13.382;2022-12-07T07:57:49;100015.31;;;4.26
73662;BMP280;61956;52.540;13.382;2022-12-07T08:00:22;100232.94;;;4.31
73662;BMP280;61956;52.540;13.382;2022-12-07T08:02:51;99927.44;;;4.31
73662;BMP280;61956;52.540;13.382;2022-12-07T08:05:21;99636.81;;;4.29
73662;BMP280;61956;52.540;13.382;2022-12-07T08:07:50;99569.06;;;4.30
73662;BMP280;61956;52.540;13.382;2022-12-07T08:10:19;99508.25;;;4.30
73662;BMP280;61956;52.540;13.382;2022-12-07T08:12:48;99518.50;;;4.30
73662;BMP280;61956;52.540;13.382;2022-12-07T08:15:33;99545.53;;;4.33
73662;BMP280;61956;52.540;13.382;2022-12-07T08:18:02;99738.06;;;4.33
73662;BMP280;61956;52.540;13.382;2022-12-07T08:20:32;99822.56;;;4.34
73662;BMP280;61956;52.540;13.382;2022-12-07T08:23:05;100156.75;;;4.38
73662;BMP280;61956;52.540;13.382;2022-12-07T08:25:36;99773.63;;;4.36
73662;BMP280;61956;52.540;13.382;2022-12-07T08:28:05;99799.06;;;4.37
73662;BMP280;61956;52.540;13.382;2022-12-07T08:30:38;100126.50;;;4.40
73662;BMP280;61956;52.540;13.382;2022-12-07T08:33:07;100602.75;;;4.44
73662;BMP280;61956;52.540;13.382;2022-12-07T08:35:37;100738.50;;;4.47
73662;BMP280;61956;52.540;13.382;2022-12-07T08:38:06;100729.22;;;4.46
73662;BMP280;61956;52.540;13.382;2022-12-07T08:40:36;100282.53;;;4.45
73662;BMP280;61956;52.540;13.382;2022-12-07T08:43:05;100600.63;;;4.48
73662;BMP280;61956;52.540;13.382;2022-12-07T08:45:34;100080.47;;;4.45
73662;BMP280;61956;52.540;13.382;2022-12-07T08:48:07;100018.06;;;4.45
73662;BMP280;61956;52.540;13.382;2022-12-07T08:50:43;99856.28;;;4.45
73662;BMP280;61956;52.540;13.382;2022-12-07T08:53:12;100421.44;;;4.50
73662;BMP280;61956;52.540;13.382;2022-12-07T08:55:42;100740.38;;;4.53
73662;BMP280;61956;52.540;13.382;2022-12-07T08:58:14;100540.03;;;4.53
73662;BMP280;61956;52.540;13.382;2022-12-07T09:00:43;99901.13;;;4.49
73662;BMP280;61956;52.540;13.382;2022-12-07T09:03:15;100618.66;;;4.54
73662;BMP280;61956;52.540;13.382;2022-12-07T09:05:44;101080.69;;;4.57
73662;BMP280;61956;52.540;13.382;2022-12-07T09:08:13;100883.69;;;4.58
73662;BMP280;61956;52.540;13.382;2022-12-07T09:10:43;99630.53;;;4.50
73662;BMP280;61956;52.540;13.382;2022-12-07T09:13:13;100369.50;;;4.54
73662;BMP280;61956;52.540;13.382;2022-12-07T09:15:42;100222.16;;;4.55
73662;BMP280;61956;52.540;13.382;2022-12-07T09:18:14;99269.75;;;4.47
73662;BMP280;61956;52.540;13.382;2022-12-07T09:20:44;99093.41;;;4.48
73662;BMP280;61956;52.540;13.382;2022-12-07T09:23:13;97845.63;;;4.41
73662;BMP280;61956;52.540;13.382;2022-12-07T09:25:42;96836.78;;;4.35
73662;BMP280;61956;52.540;13.382;2022-12-07T09:28:11;96531.47;;;4.31
73662;BMP280;61956;52.540;13.382;2022-12-07T09:30:45;96420.47;;;4.31
73662;BMP280;61956;52.540;13.382;2022-12-07T09:33:18;96118.50;;;4.28
73662;BMP280;61956;52.540;13.382;2022-12-07T09:35:48;95174.72;;;4.22
73662;BMP280;61956;52.540;13.382;2022-12-07T09:38:19;95098.94;;;4.21
73662;BMP280;61956;52.540;13.382;2022-12-07T09:40:50;95733.84;;;4.24
73662;BMP280;61956;52.540;13.382;2022-12-07T09:43:21;95354.84;;;4.23
73662;BMP280;61956;52.540;13.382;2022-12-07T09:45:54;95235.47;;;4.22
73662;BMP280;61956;52.540;13.382;2022-12-07T09:48:30;95470.16;;;4.23
73662;BMP280;61956;52.540;13.382;2022-12-07T09:51:02;94580.56;;;4.17
73662;BMP280;61956;52.540;13.382;2022-12-07T09:53:42;93899.53;;;4.12
73662;BMP280;61956;52.540;13.382;2022-12-07T09:56:12;93531.50;;;4.09
73662;BMP280;61956;52.540;13.382;2022-12-07T09:58:44;94075.53;;;4.11
73662;BMP280;61956;52.540;13.382;2022-12-07T10:01:15;93889.31;;;4.12
73662;BMP280;61956;52.540;13.382;2022-12-07T10:03:52;94430.13;;;4.14
73662;BMP280;61956;52.540;13.382;2022-12-07T10:06:23;93779.91;;;4.09
73662;BMP280;61956;52.540;13.382;2022-12-07T10:08:52;93935.72;;;4.10
73662;BMP280;61956;52.540;13.382;2022-12-07T10:11:21;93474.44;;;4.08
73662;BMP280;61956;52.540;13.382;2022-12-07T10:13:52;93906.84;;;4.10
73662;BMP280;61956;52.540;13.382;2022-12-07T10:16:40;93431.28;;;4.07
73662;BMP280;61956;52.540;13.382;2022-12-07T10:19:28;93106.88;;;4.04
73662;BMP280;61956;52.540;13.382;2022-12-07T10:22:05;93003.75;;;4.03
73662;BMP280;61956;52.540;13.382;2022-12-07T10:24:40;93900.56;;;4.07
73662;BMP280;61956;52.540;13.382;2022-12-07T10:27:29;94684.75;;;4.13
73662;BMP280;61956;52.540;13.382;2022-12-07T10:29:59;94718.84;;;4.13
73662;BMP280;61956;52.540;13.382;2022-12-07T10:32:36;94325.41;;;4.12
73662;BMP280;61956;52.540;13.382;2022-12-07T10:35:23;94425.66;;;4.11
73662;BMP280;61956;52.540;13.382;2022-12-07T10:37:56;95846.47;;;4.21
73662;BMP280;61956;52.540;13.382;2022-12-07T10:40:31;96482.34;;;4.24
73662;BMP280;61956;52.540;13.382;2022-12-07T10:43:04;96668.69;;;4.29
73662;BMP280;61956;52.540;13.382;2022-12-07T10:45:35;94468.53;;;4.14
73662;BMP280;61956;52.540;13.382;2022-12-07T10:48:28;94350.72;;;4.14
73662;BMP280;61956;52.540;13.382;2022-12-07T10:51:12;93702.31;;;4.08
73662;BMP280;61956;52.540;13.382;2022-12-07T10:53:57;93792.31;;;4.10
73662;BMP280;61956;52.540;13.382;2022-12-07T10:57:01;94605.03;;;4.14
73662;BMP280;61956;52.540;13.382;2022-12-07T11:00:00;94811.44;;;4.15
73662;BMP280;61956;52.540;13.382;2022-12-07T11:02:59;95386.22;;;4.20
73662;BMP280;61956;52.540;13.382;2022-12-07T11:05:49;95740.03;;;4.23
73662;BMP280;61956;52.540;13.382;2022-12-07T11:08:41;96009.59;;;4.25
73662;BMP280;61956;52.540;13.382;2022-12-07T11:11:26;96814.53;;;4.30
73662;BMP280;61956;52.540;13.382;2022-12-07T11:14:08;95992.44;;;4.26
73662;BMP280;61956;52.540;13.382;2022-12-07T11:16:55;95761.31;;;4.24
73662;BMP280;61956;52.540;13.382;2022-12-07T11:19:46;95762.78;;;4.25
73662;BMP280;61956;52.540;13.382;2022-12-07T11:22:32;96454.81;;;4.30
73662;BMP280;61956;52.540;13.382;2022-12-07T11:25:20;97213.53;;;4.36
73662;BMP280;61956;52.540;13.382;2022-12-07T11:28:10;96769.63;;;4.33
73662;BMP280;61956;52.540;13.382;2022-12-07T11:30:56;95734.31;;;4.26
73662;BMP280;61956;52.540;13.382;2022-12-07T11:33:35;95536.22;;;4.26
73662;BMP280;61956;52.540;13.382;2022-12-07T11:36:30;96504.00;;;4.32
73662;BMP280;61956;52.540;13.382;2022-12-07T11:39:12;97132.22;;;4.37
73662;BMP280;61956;52.540;13.382;2022-12-07T11:42:10;97297.94;;;4.38
73662;BMP280;61956;52.540;13.382;2022-12-07T11:44:48;97863.28;;;4.42
73662;BMP280;61956;52.540;13.382;2022-12-07T11:47:27;98188.66;;;4.45
73662;BMP280;61956;52.540;13.382;2022-12-07T11:50:20;98832.69;;;4.52
73662;BMP280;61956;52.540;13.382;2022-12-07T11:52:53;99281.28;;;4.56
73662;BMP280;61956;52.540;13.382;2022-12-07T11:55:30;100214.41;;;4.62
73662;BMP280;61956;52.540;13.382;2022-12-07T11:58:20;99486.25;;;4.59
73662;BMP280;61956;52.540;13.382;2022-12-07T12:01:12;101087.81;;;4.70
73662;BMP280;61956;52.540;13.382;2022-12-07T12:03:51;100860.72;;;4.71
73662;BMP280;61956;52.540;13.382;2022-12-07T12:06:23;100282.22;;;4.68
73662;BMP280;61956;52.540;13.382;2022-12-07T12:08:55;101309.13;;;4.75
73662;BMP280;61956;52.540;13.382;2022-12-07T12:11:41;99624.09;;;4.66
73662;BMP280;61956;52.540;13.382;2022-12-07T12:14:46;99873.81;;;4.68
73662;BMP280;61956;52.540;13.382;2022-12-07T12:20:38;101297.50;;;4.79
73662;BMP280;61956;52.540;13.382;2022-12-07T12:23:14;100845.97;;;4.80
73662;BMP280;61956;52.540;13.382;2022-12-07T12:25:49;101049.81;;;4.80
73662;BMP280;61956;52.540;13.382;2022-12-07T12:28:27;100856.25;;;4.80
73662;BMP280;61956;52.540;13.382;2022-12-07T12:31:11;101070.81;;;4.84
73662;BMP280;61956;52.540;13.382;2022-12-07T12:33:44;100753.09;;;4.83
73662;BMP280;61956;52.540;13.382;2022-12-07T12:36:23;100873.88;;;4.83
73662;BMP280;61956;52.540;13.382;2022-12-07T12:39:17;101757.34;;;4.91
73662;BMP280;61956;52.540;13.382;2022-12-07T12:41:58;101669.78;;;4.92
73662;BMP280;61956;52.540;13.382;2022-12-07T12:47:58;101364.78;;;4.91
73662;BMP280;61956;52.540;13.382;2022-12-07T12:50:30;101350.13;;;4.92
73662;BMP280;61956;52.540;13.382;2022-12-07T12:53:21;100765.22;;;4.89
73662;BMP280;61956;52.540;13.382;2022-12-07T12:59:24;99460.72;;;4.83
73662;BMP280;61956;52.540;13.382;2022-12-07T13:01:58;99537.00;;;4.82
73662;BMP280;61956;52.540;13.382;2022-12-07T13:04:55;99484.41;;;4.85
73662;BMP280;61956;52.540;13.382;2022-12-07T13:07:52;99568.38;;;4.84
73662;BMP280;61956;52.540;13.382;2022-12-07T13:10:40;99328.69;;;4.84
73662;BMP280;61956;52.540;13.382;2022-12-07T13:13:31;99112.94;;;4.84
73662;BMP280;61956;52.540;13.382;2022-12-07T13:22:46;98644.44;;;4.80
73662;BMP280;61956;52.540;13.382;2022-12-07T13:25:29;98397.13;;;4.79
73662;BMP280;61956;52.540;13.382;2022-12-07T13:28:02;99056.41;;;4.84
73662;BMP280;61956;52.540;13.382;2022-12-07T13:30:46;99428.47;;;4.87
73662;BMP280;61956;52.540;13.382;2022-12-07T13:33:22;99384.00;;;4.87
73662;BMP280;61956;52.540;13.382;2022-12-07T13:35:56;98964.75;;;4.84
73662;BMP280;61956;52.540;13.382;2022-12-07T13:38:32;98693.53;;;4.83
73662;BMP280;61956;52.540;13.382;2022-12-07T13:41:12;99318.56;;;4.89
73662;BMP280;61956;52.540;13.382;2022-12-07T13:43:46;99210.66;;;4.89
73662;BMP280;61956;52.540;13.382;2022-12-07T13:46:20;99673.66;;;4.91
73662;BMP280;61956;52.540;13.382;2022-12-07T13:48:54;100587.72;;;4.97
73662;BMP280;61956;52.540;13.382;2022-12-07T13:51:25;100098.59;;;4.97
73662;BMP280;61956;52.540;13.382;2022-12-07T13:54:00;100324.56;;;4.98
73662;BMP280;61956;52.540;13.382;2022-12-07T13:56:36;100039.28;;;4.98
73662;BMP280;61956;52.540;13.382;2022-12-07T13:59:12;100121.53;;;4.98
73662;BMP280;61956;52.540;13.382;2022-12-07T14:01:47;100091.47;;;4.99
73662;BMP280;61956;52.540;13.382;2022-12-07T14:04:32;99880.75;;;4.99
73662;BMP280;61956;52.540;13.382;2022-12-07T14:07:20;99314.34;;;4.95
73662;BMP280;61956;52.540;13.382;2022-12-07T14:09:59;99153.28;;;4.95
73662;BMP280;61956;52.540;13.382;2022-12-07T14:12:32;98383.38;;;4.91
73662;BMP280;61956;52.540;13.382;2022-12-07T14:15:15;98292.97;;;4.89
73662;BMP280;61956;52.540;13.382;2022-12-07T14:17:50;98169.97;;;4.87
73662;BMP280;61956;52.540;13.382;2022-12-07T14:20:31;97187.19;;;4.84
73662;BMP280;61956;52.540;13.382;2022-12-07T14:23:02;96454.63;;;4.76
73662;BMP280;61956;52.540;13.382;2022-12-07T14:26:04;97355.84;;;4.83
73662;BMP280;61956;52.540;13.382;2022-12-07T14:28:37;97080.69;;;4.81
73662;BMP280;61956;52.540;13.382;2022-12-07T14:31:11;96743.25;;;4.79
73662;BMP280;61956;52.540;13.382;2022-12-07T14:33:42;96867.97;;;4.80
73662;BMP280;61956;52.540;13.382;2022-12-07T14:36:13;96713.53;;;4.78
73662;BMP280;61956;52.540;13.382;2022-12-07T14:38:42;95926.44;;;4.75
73662;BMP280;61956;52.540;13.382;2022-12-07T14:41:21;95765.88;;;4.74
73662;BMP280;61956;52.540;13.382;2022-12-07T14:44:15;95552.84;;;4.70
73662;BMP280;61956;52.540;13.382;2022-12-07T14:46:44;95375.09;;;4.70
73662;BMP280;61956;52.540;13.382;2022-12-07T14:49:13;94367.28;;;4.62
73662;BMP280;61956;52.540;13.382;2022-12-07T14:51:44;92848.00;;;4.54
73662;BMP280;61956;52.540;13.382;2022-12-07T14:54:16;92638.72;;;4.51
73662;BMP280;61956;52.540;13.382;2022-12-07T14:56:50;92229.38;;;4.46
73662;BMP280;61956;52.540;13.382;2022-12-07T14:59:19;91330.50;;;4.40
73662;BMP280;61956;52.540;13.382;2022-12-07T15:01:48;91325.81;;;4.38
73662;BMP280;61956;52.540;13.382;2022-12-07T15:04:17;90377.31;;;4.32
73662;BMP280;61956;52.540;13.382;2022-12-07T15:06:55;90047.03;;;4.30